Time;durP1;ratioP1;P1;durP2;ratioP2;P2;SDS_P1;SDS_P2;PMS_P1;PMS_P2;Temp;Humidity;BMP_temperature;BMP_pressure;BME280_temperature;BME280_humidity;BME280_pressure;Samples;Min_cycle;Max_cycle;Signal;HPM_P1;HPM_P2
2023/05/26 00:00:18;;;;;;;39.83;5.30;;;;;;;;;;5030568;28;20224;-75
2023/05/26 00:02:45;;;;;;;34.70;5.75;;;;;;;;;;5029308;28;20187;-75
2023/05/26 00:05:12;;;;;;;26.80;4.70;;;;;;;;;;5044142;28;20208;-75
2023/05/26 00:07:39;;;;;;;28.80;5.13;;;;;;;;;;5044510;28;20650;-75
2023/05/26 00:10:06;;;;;;;32.70;4.75;;;;;;;;;;5026833;28;20233;-75
2023/05/26 00:12:31;;;;;;;33.08;5.07;;;;;;;;;;5034493;28;20193;-75
2023/05/26 00:14:57;;;;;;;29.40;5.20;;;;;;;;;;5029108;28;20178;-75
2023/05/26 00:17:22;;;;;;;33.05;5.13;;;;;;;;;;5031463;28;20217;-75
2023/05/26 00:19:49;;;;;;;40.00;7.25;;;;;;;;;;5036738;28;20374;-75
2023/05/26 00:22:15;;;;;;;37.55;5.90;;;;;;;;;;5031082;28;20672;-75
2023/05/26 00:24:41;;;;;;;32.53;5.28;;;;;;;;;;5039576;28;20624;-75
2023/05/26 00:27:06;;;;;;;30.35;5.05;;;;;;;;;;5029037;28;20198;-74
2023/05/26 00:29:33;;;;;;;30.25;5.15;;;;;;;;;;5029877;28;20218;-75
2023/05/26 00:31:59;;;;;;;38.72;6.00;;;;;;;;;;5029144;28;20265;-75
2023/05/26 00:34:24;;;;;;;30.70;5.35;;;;;;;;;;5020431;28;20302;-74
2023/05/26 00:36:50;;;;;;;25.27;5.40;;;;;;;;;;5033272;28;20674;-75
2023/05/26 00:39:15;;;;;;;31.85;5.10;;;;;;;;;;5030183;28;20222;-75
2023/05/26 00:41:40;;;;;;;32.22;5.75;;;;;;;;;;5029228;28;20194;-75
2023/05/26 00:44:06;;;;;;;34.25;5.68;;;;;;;;;;5038932;28;20189;-75
2023/05/26 00:46:31;;;;;;;29.08;4.85;;;;;;;;;;5046750;28;20189;-75
2023/05/26 00:48:57;;;;;;;36.90;6.10;;;;;;;;;;5045427;28;20220;-75
2023/05/26 00:51:22;;;;;;;32.85;5.03;;;;;;;;;;5034545;28;20212;-75
2023/05/26 00:53:48;;;;;;;25.00;4.88;;;;;;;;;;5031230;28;20221;-75
2023/05/26 00:56:18;;;;;;;33.57;5.13;;;;;;;;;;5030295;28;20646;-74
2023/05/26 00:58:43;;;;;;;30.98;4.95;;;;;;;;;;5035328;28;20177;-74
2023/05/26 01:01:10;;;;;;;30.05;5.07;;;;;;;;;;5042989;28;20694;-74
2023/05/26 01:03:37;;;;;;;28.10;5.18;;;;;;;;;;5035916;28;20193;-74
2023/05/26 01:06:03;;;;;;;22.58;5.10;;;;;;;;;;5045836;28;20266;-74
2023/05/26 01:08:29;;;;;;;32.03;4.97;;;;;;;;;;5030639;28;20568;-74
2023/05/26 01:11:00;;;;;;;26.55;4.60;;;;;;;;;;5027856;28;20182;-74
2023/05/26 01:13:29;;;;;;;26.52;4.68;;;;;;;;;;5028257;28;20633;-74
2023/05/26 01:16:03;;;;;;;22.45;4.97;;;;;;;;;;5025916;28;20721;-74
2023/05/26 01:18:45;;;;;;;34.67;5.43;;;;;;;;;;5025743;28;20422;-74
2023/05/26 01:21:14;;;;;;;34.15;5.13;;;;;;;;;;5027025;28;20193;-74
2023/05/26 01:24:04;;;;;;;26.43;4.30;;;;;;;;;;5023293;28;20209;-74
2023/05/26 01:27:00;;;;;;;28.60;5.32;;;;;;;;;;5019451;28;20201;-75
2023/05/26 01:29:28;;;;;;;30.20;4.68;;;;;;;;;;5027187;28;20217;-75
2023/05/26 01:31:54;;;;;;;32.92;6.22;;;;;;;;;;5028499;28;20192;-75
2023/05/26 01:34:19;;;;;;;33.63;5.73;;;;;;;;;;5034385;28;20185;-75
2023/05/26 01:36:45;;;;;;;28.48;5.63;;;;;;;;;;5034272;28;20198;-75
2023/05/26 01:39:10;;;;;;;31.50;5.63;;;;;;;;;;5025813;28;20297;-75
2023/05/26 01:42:04;;;;;;;38.70;6.00;;;;;;;;;;5018092;28;20658;-75
2023/05/26 01:44:35;;;;;;;31.20;5.00;;;;;;;;;;5032306;28;20656;-75
2023/05/26 01:47:02;;;;;;;26.90;4.87;;;;;;;;;;5035974;28;20277;-75
2023/05/26 01:49:30;;;;;;;36.67;5.30;;;;;;;;;;5029781;28;20759;-75
2023/05/26 01:52:09;;;;;;;35.27;5.33;;;;;;;;;;5026968;28;20680;-75
2023/05/26 01:54:41;;;;;;;34.60;5.65;;;;;;;;;;5026278;28;20194;-75
2023/05/26 01:57:08;;;;;;;30.17;5.38;;;;;;;;;;5021275;28;20214;-74
2023/05/26 01:59:34;;;;;;;29.70;5.50;;;;;;;;;;5040395;28;20259;-73
2023/05/26 02:02:00;;;;;;;30.83;5.30;;;;;;;;;;5027189;28;20213;-73
2023/05/26 02:04:25;;;;;;;30.65;5.28;;;;;;;;;;5028431;28;20194;-73
2023/05/26 02:06:52;;;;;;;25.70;4.88;;;;;;;;;;5018922;28;20549;-74
2023/05/26 02:09:17;;;;;;;27.40;5.32;;;;;;;;;;5029366;28;20233;-74
2023/05/26 02:11:43;;;;;;;34.25;5.32;;;;;;;;;;5031587;28;20662;-73
2023/05/26 02:14:08;;;;;;;37.55;6.38;;;;;;;;;;5033637;28;20377;-73
2023/05/26 02:16:34;;;;;;;27.75;5.35;;;;;;;;;;5042667;28;20239;-73
2023/05/26 02:19:00;;;;;;;33.73;5.07;;;;;;;;;;5006888;28;20251;-73
2023/05/26 02:21:30;;;;;;;26.13;5.47;;;;;;;;;;5023953;28;20190;-73
2023/05/26 02:23:56;;;;;;;29.10;5.25;;;;;;;;;;5025341;28;20727;-74
2023/05/26 02:26:21;;;;;;;32.08;5.72;;;;;;;;;;5013805;28;20285;-74
2023/05/26 02:28:49;;;;;;;35.45;5.70;;;;;;;;;;5022915;28;20263;-74
2023/05/26 02:31:15;;;;;;;30.88;5.50;;;;;;;;;;5027683;28;20252;-74
2023/05/26 02:33:41;;;;;;;28.08;5.45;;;;;;;;;;5024793;28;20185;-74
2023/05/26 02:36:07;;;;;;;23.80;4.82;;;;;;;;;;5025307;28;20174;-74
2023/05/26 02:38:33;;;;;;;36.03;5.53;;;;;;;;;;5022209;28;20772;-73
2023/05/26 02:40:58;;;;;;;25.98;5.75;;;;;;;;;;5021748;28;20182;-74
2023/05/26 02:43:23;;;;;;;35.13;6.72;;;;;;;;;;5025179;28;20642;-74
2023/05/26 02:45:50;;;;;;;26.40;4.68;;;;;;;;;;5031285;28;20599;-73
2023/05/26 02:48:15;;;;;;;33.75;6.70;;;;;;;;;;5033881;28;20274;-73
2023/05/26 02:50:40;;;;;;;28.02;5.72;;;;;;;;;;5021666;28;20191;-73
2023/05/26 02:53:06;;;;;;;31.60;6.20;;;;;;;;;;5023536;28;20247;-73
2023/05/26 02:55:31;;;;;;;36.53;6.13;;;;;;;;;;5028050;28;20205;-73
2023/05/26 02:57:56;;;;;;;30.65;6.88;;;;;;;;;;5019653;28;20178;-73
2023/05/26 03:00:22;;;;;;;29.67;6.07;;;;;;;;;;5048567;28;20304;-73
2023/05/26 03:02:47;;;;;;;32.63;5.18;;;;;;;;;;5024661;28;20190;-73
2023/05/26 03:05:13;;;;;;;34.78;6.30;;;;;;;;;;5025431;28;20289;-73
2023/05/26 03:07:38;;;;;;;38.75;6.25;;;;;;;;;;5017033;28;20869;-75
2023/05/26 03:10:04;;;;;;;33.95;6.38;;;;;;;;;;5028069;28;20209;-74
2023/05/26 03:12:29;;;;;;;39.15;6.28;;;;;;;;;;5031118;28;20694;-74
2023/05/26 03:14:55;;;;;;;28.63;5.25;;;;;;;;;;5026687;28;20190;-74
2023/05/26 03:17:20;;;;;;;35.15;5.93;;;;;;;;;;5020039;28;20181;-75
2023/05/26 03:19:46;;;;;;;27.88;5.95;;;;;;;;;;5025062;28;20261;-75
2023/05/26 03:22:11;;;;;;;26.77;5.90;;;;;;;;;;5020768;28;20183;-75
2023/05/26 03:24:37;;;;;;;28.00;6.07;;;;;;;;;;5019688;28;20194;-72
2023/05/26 03:27:03;;;;;;;38.50;6.18;;;;;;;;;;5023303;28;20197;-73
2023/05/26 03:29:30;;;;;;;33.78;5.47;;;;;;;;;;5030839;28;20214;-74
2023/05/26 03:31:56;;;;;;;26.40;4.97;;;;;;;;;;5029259;28;20186;-74
2023/05/26 03:34:23;;;;;;;28.10;6.07;;;;;;;;;;5028051;28;20178;-74
2023/05/26 03:36:49;;;;;;;36.08;6.45;;;;;;;;;;5030692;28;20186;-74
2023/05/26 03:39:15;;;;;;;31.70;5.47;;;;;;;;;;5003606;28;20225;-74
2023/05/26 03:41:40;;;;;;;27.15;6.32;;;;;;;;;;5021935;28;20193;-74
2023/05/26 03:44:06;;;;;;;28.38;5.40;;;;;;;;;;5027730;28;20190;-74
2023/05/26 03:46:32;;;;;;;32.05;5.95;;;;;;;;;;5029081;28;20194;-74
2023/05/26 03:48:57;;;;;;;38.30;6.53;;;;;;;;;;5028534;28;20563;-74
2023/05/26 03:51:22;;;;;;;48.40;6.83;;;;;;;;;;5030971;28;20185;-74
2023/05/26 03:53:48;;;;;;;34.30;5.57;;;;;;;;;;5027327;28;20178;-74
2023/05/26 03:56:13;;;;;;;34.45;6.15;;;;;;;;;;5027669;28;20649;-74
2023/05/26 03:58:38;;;;;;;29.15;5.43;;;;;;;;;;5029267;28;20266;-74
2023/05/26 04:01:04;;;;;;;29.02;5.68;;;;;;;;;;5010947;28;20210;-74
2023/05/26 04:03:30;;;;;;;36.60;7.00;;;;;;;;;;5019122;28;20623;-74
2023/05/26 04:05:59;;;;;;;35.70;6.20;;;;;;;;;;5024627;28;20529;-74
2023/05/26 04:08:25;;;;;;;30.73;5.63;;;;;;;;;;5023942;28;20245;-73
2023/05/26 04:10:50;;;;;;;29.37;5.57;;;;;;;;;;5029753;28;20194;-73
2023/05/26 04:13:16;;;;;;;35.03;6.33;;;;;;;;;;5028279;28;20202;-73
2023/05/26 04:15:42;;;;;;;33.63;6.13;;;;;;;;;;5028444;28;20606;-73
2023/05/26 04:18:07;;;;;;;37.13;6.63;;;;;;;;;;5030256;28;20198;-73
2023/05/26 04:20:32;;;;;;;39.95;6.38;;;;;;;;;;5028390;28;20677;-74
2023/05/26 04:22:58;;;;;;;37.27;6.70;;;;;;;;;;5028353;28;20285;-73
2023/05/26 04:25:24;;;;;;;27.53;5.20;;;;;;;;;;5025895;28;20230;-73
2023/05/26 04:27:52;;;;;;;28.30;5.57;;;;;;;;;;5024425;28;20281;-73
2023/05/26 04:30:18;;;;;;;36.60;7.50;;;;;;;;;;5009659;28;20210;-73
2023/05/26 04:32:43;;;;;;;39.33;6.23;;;;;;;;;;5029321;28;20197;-73
2023/05/26 04:35:10;;;;;;;41.67;6.50;;;;;;;;;;5013282;28;20245;-74
2023/05/26 04:37:36;;;;;;;36.38;6.90;;;;;;;;;;5025794;28;20191;-74
2023/05/26 04:40:05;;;;;;;30.13;6.33;;;;;;;;;;5031777;28;20331;-74
2023/05/26 04:42:33;;;;;;;28.63;6.50;;;;;;;;;;5028674;28;20201;-74
2023/05/26 04:45:00;;;;;;;32.58;6.45;;;;;;;;;;5030905;28;20193;-74
2023/05/26 04:47:27;;;;;;;35.27;6.77;;;;;;;;;;5045324;28;20194;-74
2023/05/26 04:49:53;;;;;;;38.83;7.32;;;;;;;;;;5021417;28;20670;-74
2023/05/26 04:52:18;;;;;;;34.20;6.53;;;;;;;;;;5029165;28;20197;-74
2023/05/26 04:54:43;;;;;;;36.40;5.78;;;;;;;;;;5026465;28;20663;-74
2023/05/26 04:57:09;;;;;;;37.93;6.20;;;;;;;;;;5019173;28;20225;-74
2023/05/26 04:59:37;;;;;;;34.95;6.65;;;;;;;;;;5022906;28;20255;-74
2023/05/26 05:02:03;;;;;;;37.95;6.47;;;;;;;;;;5027852;28;21922;-74
2023/05/26 05:04:28;;;;;;;42.67;6.93;;;;;;;;;;5043200;28;20315;-74
2023/05/26 05:06:54;;;;;;;39.42;7.28;;;;;;;;;;5023813;28;20653;-74
2023/05/26 05:09:21;;;;;;;40.75;7.40;;;;;;;;;;5015253;28;20215;-74
2023/05/26 05:11:46;;;;;;;32.85;6.93;;;;;;;;;;5026204;28;20242;-74
2023/05/26 05:14:12;;;;;;;36.15;6.75;;;;;;;;;;5026138;28;20610;-74
2023/05/26 05:16:37;;;;;;;40.28;6.45;;;;;;;;;;5024040;28;20202;-74
2023/05/26 05:19:03;;;;;;;32.30;6.15;;;;;;;;;;5018613;28;20190;-72
2023/05/26 05:21:28;;;;;;;34.13;6.13;;;;;;;;;;5021488;28;20217;-74
2023/05/26 05:23:53;;;;;;;35.65;5.82;;;;;;;;;;5025895;28;20198;-74
2023/05/26 05:26:19;;;;;;;43.33;6.45;;;;;;;;;;5024010;28;20491;-73
2023/05/26 05:28:44;;;;;;;30.13;6.07;;;;;;;;;;5025978;28;20237;-74
2023/05/26 05:31:10;;;;;;;37.60;7.18;;;;;;;;;;5024157;28;20264;-73
2023/05/26 05:33:38;;;;;;;29.08;5.45;;;;;;;;;;5015055;28;20200;-74
2023/05/26 05:36:04;;;;;;;29.40;5.25;;;;;;;;;;5030301;28;20224;-73
2023/05/26 05:38:30;;;;;;;30.70;5.45;;;;;;;;;;5026479;28;20253;-73
2023/05/26 05:40:55;;;;;;;33.38;6.45;;;;;;;;;;5018265;28;20288;-73
2023/05/26 05:43:20;;;;;;;28.73;6.03;;;;;;;;;;5027952;28;20289;-73
2023/05/26 05:45:46;;;;;;;32.67;6.70;;;;;;;;;;5015641;28;20189;-74
2023/05/26 05:48:11;;;;;;;32.90;5.35;;;;;;;;;;5021261;28;20194;-74
2023/05/26 05:50:37;;;;;;;33.22;5.82;;;;;;;;;;5022274;28;20213;-73
2023/05/26 05:53:02;;;;;;;34.35;6.70;;;;;;;;;;5020593;28;20280;-73
2023/05/26 05:55:28;;;;;;;31.25;5.85;;;;;;;;;;5020306;28;20199;-73
2023/05/26 05:57:54;;;;;;;24.98;5.82;;;;;;;;;;5021030;28;20557;-73
2023/05/26 06:00:19;;;;;;;31.40;6.35;;;;;;;;;;5019821;28;20257;-74
2023/05/26 06:02:45;;;;;;;30.02;6.30;;;;;;;;;;5019644;28;20190;-72
2023/05/26 06:05:11;;;;;;;24.65;4.93;;;;;;;;;;5026977;28;20695;-74
2023/05/26 06:07:36;;;;;;;26.80;5.30;;;;;;;;;;5018252;28;20195;-74
2023/05/26 06:10:01;;;;;;;39.33;5.93;;;;;;;;;;5022847;28;20756;-75
2023/05/26 06:12:27;;;;;;;28.05;5.97;;;;;;;;;;5025225;28;20198;-74
2023/05/26 06:14:52;;;;;;;29.48;5.80;;;;;;;;;;5025923;28;20194;-72
2023/05/26 06:17:17;;;;;;;27.63;6.03;;;;;;;;;;5025147;28;20222;-72
2023/05/26 06:19:43;;;;;;;33.35;5.80;;;;;;;;;;5041129;28;20541;-72
2023/05/26 06:22:08;;;;;;;31.50;5.35;;;;;;;;;;5024224;28;20259;-74
2023/05/26 06:24:33;;;;;;;28.95;5.82;;;;;;;;;;5023137;28;20195;-72
2023/05/26 06:26:59;;;;;;;26.77;4.80;;;;;;;;;;5027746;28;20212;-70
2023/05/26 06:29:24;;;;;;;24.10;4.30;;;;;;;;;;5028261;28;20213;-74
2023/05/26 06:31:50;;;;;;;31.85;5.70;;;;;;;;;;5025925;28;20235;-70
2023/05/26 06:34:15;;;;;;;31.05;5.47;;;;;;;;;;5036303;28;20676;-74
2023/05/26 06:36:40;;;;;;;25.08;4.85;;;;;;;;;;5022237;28;20484;-72
2023/05/26 06:39:06;;;;;;;25.70;5.57;;;;;;;;;;5029531;28;20280;-73
2023/05/26 06:41:32;;;;;;;33.95;6.07;;;;;;;;;;5025323;28;20190;-74
2023/05/26 06:43:57;;;;;;;23.77;4.40;;;;;;;;;;5025537;28;20232;-68
2023/05/26 06:46:22;;;;;;;28.52;4.82;;;;;;;;;;5023725;28;20179;-72
2023/05/26 06:48:48;;;;;;;29.25;5.82;;;;;;;;;;5028627;28;20279;-74
2023/05/26 06:51:13;;;;;;;28.55;5.43;;;;;;;;;;5027715;28;20182;-73
2023/05/26 06:53:39;;;;;;;26.55;5.32;;;;;;;;;;5013019;28;20199;-74
2023/05/26 06:56:05;;;;;;;26.60;5.07;;;;;;;;;;5024206;28;20190;-71
2023/05/26 06:58:31;;;;;;;31.52;5.35;;;;;;;;;;5026301;28;20186;-74
2023/05/26 07:00:58;;;;;;;28.52;5.50;;;;;;;;;;5026030;28;20211;-74
2023/05/26 07:03:23;;;;;;;30.27;5.55;;;;;;;;;;5022667;28;20688;-74
2023/05/26 07:05:48;;;;;;;21.50;4.95;;;;;;;;;;5025354;28;20253;-66
2023/05/26 07:08:15;;;;;;;33.85;6.50;;;;;;;;;;5019460;28;20654;-72
2023/05/26 07:10:40;;;;;;;32.90;6.20;;;;;;;;;;5030291;28;20726;-70
2023/05/26 07:13:05;;;;;;;21.35;4.78;;;;;;;;;;5041142;28;20186;-71
2023/05/26 07:15:31;;;;;;;31.40;5.90;;;;;;;;;;5030467;28;20576;-74
2023/05/26 07:17:56;;;;;;;17.50;4.88;;;;;;;;;;5026670;28;20193;-72
2023/05/26 07:20:22;;;;;;;19.48;4.85;;;;;;;;;;5032188;28;20205;-71
2023/05/26 07:22:47;;;;;;;27.77;5.07;;;;;;;;;;5032728;28;20201;-70
2023/05/26 07:25:13;;;;;;;23.38;4.90;;;;;;;;;;5036311;28;20200;-71
2023/05/26 07:27:38;;;;;;;26.85;5.32;;;;;;;;;;5031644;28;20767;-73
2023/05/26 07:30:04;;;;;;;27.55;5.05;;;;;;;;;;5037213;28;20244;-73
2023/05/26 07:32:29;;;;;;;23.00;4.80;;;;;;;;;;5028808;28;20263;-72
2023/05/26 07:34:55;;;;;;;29.88;4.80;;;;;;;;;;5024713;28;20202;-72
2023/05/26 07:37:20;;;;;;;32.78;5.28;;;;;;;;;;5025039;28;20688;-74
2023/05/26 07:39:45;;;;;;;29.17;4.75;;;;;;;;;;5030077;28;20253;-70
2023/05/26 07:42:11;;;;;;;24.63;5.32;;;;;;;;;;5029922;28;20182;-71
2023/05/26 07:44:36;;;;;;;26.02;4.88;;;;;;;;;;5029025;28;20208;-71
2023/05/26 07:47:02;;;;;;;22.48;4.18;;;;;;;;;;5038216;28;20194;-71
2023/05/26 07:49:27;;;;;;;24.67;4.45;;;;;;;;;;5043842;28;20220;-73
2023/05/26 07:51:52;;;;;;;22.90;4.25;;;;;;;;;;5030175;28;20665;-67
2023/05/26 07:54:18;;;;;;;24.02;4.55;;;;;;;;;;5031006;28;20193;-69
2023/05/26 07:56:43;;;;;;;25.90;5.05;;;;;;;;;;5015469;28;20221;-71
2023/05/26 07:59:08;;;;;;;25.10;5.32;;;;;;;;;;5021163;28;20611;-72
2023/05/26 08:01:34;;;;;;;34.95;5.47;;;;;;;;;;5026884;28;20250;-72
2023/05/26 08:03:59;;;;;;;21.92;4.47;;;;;;;;;;5028538;28;20182;-73
2023/05/26 08:06:25;;;;;;;24.30;4.70;;;;;;;;;;5022899;28;20249;-72
2023/05/26 08:08:50;;;;;;;26.95;4.78;;;;;;;;;;5022972;28;20226;-72
2023/05/26 08:11:17;;;;;;;23.55;4.80;;;;;;;;;;5024359;28;20204;-72
2023/05/26 08:13:42;;;;;;;29.63;5.75;;;;;;;;;;5022480;28;20292;-72
2023/05/26 08:16:08;;;;;;;21.10;4.75;;;;;;;;;;5034335;28;20264;-71
2023/05/26 08:18:33;;;;;;;22.88;4.47;;;;;;;;;;5038968;28;20194;-72
2023/05/26 08:20:59;;;;;;;24.48;4.78;;;;;;;;;;5024382;28;20260;-73
2023/05/26 08:23:24;;;;;;;21.50;4.65;;;;;;;;;;5025214;28;20685;-72
2023/05/26 08:25:50;;;;;;;23.08;5.72;;;;;;;;;;5027158;28;20190;-72
2023/05/26 08:28:15;;;;;;;19.42;4.93;;;;;;;;;;5024130;28;20190;-71
2023/05/26 08:30:41;;;;;;;22.40;4.55;;;;;;;;;;5027145;28;20209;-71
2023/05/26 08:33:06;;;;;;;25.98;4.65;;;;;;;;;;5029650;28;20317;-68
2023/05/26 08:35:32;;;;;;;28.23;5.05;;;;;;;;;;5025694;28;20365;-72
2023/05/26 08:37:57;;;;;;;22.63;4.10;;;;;;;;;;5032359;28;20205;-71
2023/05/26 08:40:23;;;;;;;27.60;4.63;;;;;;;;;;5037302;28;20257;-69
2023/05/26 08:42:54;;;;;;;29.98;4.80;;;;;;;;;;5031871;28;20190;-68
2023/05/26 08:45:20;;;;;;;22.73;4.65;;;;;;;;;;5027375;28;20194;-70
2023/05/26 08:47:47;;;;;;;27.95;4.85;;;;;;;;;;5020288;28;20716;-73
2023/05/26 08:50:15;;;;;;;27.70;4.55;;;;;;;;;;5038590;28;20213;-72
2023/05/26 08:52:41;;;;;;;21.70;4.90;;;;;;;;;;5015246;28;20183;-72
2023/05/26 08:55:08;;;;;;;25.02;4.85;;;;;;;;;;5028033;28;20375;-73
2023/05/26 08:57:34;;;;;;;21.42;4.22;;;;;;;;;;5029001;28;20502;-72
2023/05/26 08:59:59;;;;;;;26.23;4.88;;;;;;;;;;5018570;28;20197;-73
2023/05/26 09:02:26;;;;;;;22.63;5.13;;;;;;;;;;5040752;28;20506;-73
2023/05/26 09:04:51;;;;;;;25.77;5.22;;;;;;;;;;5037497;28;20619;-72
2023/05/26 09:07:18;;;;;;;23.25;4.65;;;;;;;;;;5019344;28;20194;-71
2023/05/26 09:09:43;;;;;;;21.30;4.68;;;;;;;;;;5024788;28;20221;-71
2023/05/26 09:12:10;;;;;;;21.73;4.30;;;;;;;;;;5032250;28;20274;-72
2023/05/26 09:14:37;;;;;;;22.55;4.85;;;;;;;;;;5013100;28;20738;-69
2023/05/26 09:17:04;;;;;;;19.50;4.07;;;;;;;;;;5027284;28;20186;-71
2023/05/26 09:19:31;;;;;;;26.83;4.35;;;;;;;;;;5023244;28;20186;-72
2023/05/26 09:21:56;;;;;;;26.55;4.18;;;;;;;;;;5023525;28;20277;-72
2023/05/26 09:24:26;;;;;;;19.00;4.18;;;;;;;;;;5034093;28;20265;-72
2023/05/26 09:26:51;;;;;;;17.35;4.47;;;;;;;;;;5028340;28;20605;-72
2023/05/26 09:29:17;;;;;;;25.40;5.40;;;;;;;;;;5018650;28;20236;-71
2023/05/26 09:31:49;;;;;;;20.58;4.32;;;;;;;;;;5024733;28;20689;-73
2023/05/26 09:34:17;;;;;;;21.80;4.50;;;;;;;;;;5027085;28;20195;-73
2023/05/26 09:36:42;;;;;;;19.25;3.40;;;;;;;;;;5022433;28;20537;-72
2023/05/26 09:39:10;;;;;;;20.05;4.32;;;;;;;;;;5028228;28;20221;-68
2023/05/26 09:41:45;;;;;;;23.08;4.07;;;;;;;;;;5016813;28;20187;-69
2023/05/26 09:44:19;;;;;;;19.80;4.53;;;;;;;;;;5011340;28;20186;-71
2023/05/26 09:46:46;;;;;;;21.67;4.40;;;;;;;;;;5019810;28;20289;-74
2023/05/26 09:49:18;;;;;;;20.77;4.47;;;;;;;;;;5019638;28;20657;-72
2023/05/26 09:51:49;;;;;;;18.10;3.72;;;;;;;;;;5019848;28;20194;-69
2023/05/26 09:54:15;;;;;;;24.15;4.72;;;;;;;;;;5019763;28;20590;-70
2023/05/26 09:56:46;;;;;;;24.45;4.30;;;;;;;;;;5026596;28;20222;-71
2023/05/26 09:59:15;;;;;;;19.52;5.03;;;;;;;;;;5031277;28;20186;-73
2023/05/26 10:01:42;;;;;;;19.27;4.40;;;;;;;;;;5023231;28;20226;-67
2023/05/26 10:04:08;;;;;;;19.65;4.45;;;;;;;;;;5022350;28;20202;-68
2023/05/26 10:06:36;;;;;;;19.15;4.38;;;;;;;;;;5021724;28;20216;-71
2023/05/26 10:09:04;;;;;;;19.38;4.10;;;;;;;;;;5025380;28;20691;-72
2023/05/26 10:11:33;;;;;;;18.80;3.58;;;;;;;;;;5024065;28;20222;-72
2023/05/26 10:13:59;;;;;;;20.23;4.75;;;;;;;;;;5020416;28;20186;-72
2023/05/26 10:16:25;;;;;;;21.17;4.30;;;;;;;;;;5026077;28;20277;-71
2023/05/26 10:18:51;;;;;;;14.00;3.67;;;;;;;;;;5013833;28;20260;-73
2023/05/26 10:21:21;;;;;;;18.27;4.40;;;;;;;;;;5021204;28;20233;-71
2023/05/26 10:23:58;;;;;;;19.63;4.35;;;;;;;;;;5025383;28;20186;-72
2023/05/26 10:26:36;;;;;;;17.85;4.68;;;;;;;;;;5016591;28;20197;-70
2023/05/26 10:29:06;;;;;;;19.98;4.95;;;;;;;;;;5029820;28;20203;-71
2023/05/26 10:31:34;;;;;;;22.33;5.35;;;;;;;;;;5017122;28;20540;-71
2023/05/26 10:34:00;;;;;;;21.65;5.25;;;;;;;;;;5032264;28;20660;-72
2023/05/26 10:36:26;;;;;;;22.20;4.85;;;;;;;;;;5021959;28;20191;-72
2023/05/26 10:38:53;;;;;;;20.38;4.32;;;;;;;;;;5010531;28;20254;-71
2023/05/26 10:41:50;;;;;;;18.30;4.38;;;;;;;;;;5028720;28;20249;-72
2023/05/26 10:44:54;;;;;;;23.45;5.22;;;;;;;;;;5033785;28;20186;-70
2023/05/26 10:47:19;;;;;;;17.10;4.57;;;;;;;;;;5006513;28;20217;-73
2023/05/26 10:49:56;;;;;;;15.75;4.95;;;;;;;;;;5015463;28;20271;-74
2023/05/26 10:52:24;;;;;;;19.63;4.43;;;;;;;;;;5016580;28;20557;-70
2023/05/26 10:54:51;;;;;;;23.67;4.45;;;;;;;;;;5029085;28;20185;-71
2023/05/26 10:57:30;;;;;;;22.25;4.28;;;;;;;;;;5032906;28;20187;-70
2023/05/26 10:59:56;;;;;;;21.27;4.32;;;;;;;;;;5020844;28;20181;-69
2023/05/26 11:02:21;;;;;;;15.75;4.28;;;;;;;;;;5032067;28;20182;-72
2023/05/26 11:04:48;;;;;;;17.95;4.40;;;;;;;;;;5024146;28;20195;-68
2023/05/26 11:07:28;;;;;;;13.02;3.75;;;;;;;;;;5036656;28;20190;-69
2023/05/26 11:10:05;;;;;;;22.20;4.53;;;;;;;;;;5017913;28;20722;-71
2023/05/26 11:12:35;;;;;;;20.25;4.30;;;;;;;;;;5042400;28;20228;-71
2023/05/26 11:15:26;;;;;;;14.68;4.50;;;;;;;;;;5028606;28;20262;-71
2023/05/26 11:18:06;;;;;;;19.17;4.53;;;;;;;;;;5029569;28;20214;-70
2023/05/26 11:20:32;;;;;;;15.98;3.20;;;;;;;;;;5034514;28;20201;-73
2023/05/26 11:22:58;;;;;;;13.10;4.07;;;;;;;;;;5024726;28;20187;-69
2023/05/26 11:25:25;;;;;;;14.48;4.00;;;;;;;;;;5013351;28;20191;-70
2023/05/26 11:27:51;;;;;;;14.43;4.40;;;;;;;;;;5024815;28;20190;-69
2023/05/26 11:30:18;;;;;;;17.63;3.83;;;;;;;;;;5016290;28;20218;-71
2023/05/26 11:32:48;;;;;;;20.73;4.57;;;;;;;;;;5026440;28;20198;-72
2023/05/26 11:35:23;;;;;;;15.40;4.18;;;;;;;;;;5015345;28;20242;-72
2023/05/26 11:37:49;;;;;;;16.00;4.63;;;;;;;;;;5022446;28;20586;-69
2023/05/26 11:40:14;;;;;;;16.83;4.45;;;;;;;;;;5017188;28;20229;-68
2023/05/26 11:42:44;;;;;;;21.70;4.93;;;;;;;;;;5016422;28;20203;-70
2023/05/26 11:45:10;;;;;;;17.00;4.28;;;;;;;;;;5010849;28;20532;-69
2023/05/26 11:47:35;;;;;;;22.92;4.57;;;;;;;;;;5020744;28;20190;-68
2023/05/26 11:50:11;;;;;;;16.80;3.88;;;;;;;;;;5037993;28;20280;-69
2023/05/26 11:52:48;;;;;;;13.20;3.60;;;;;;;;;;5020840;28;20194;-70
2023/05/26 11:55:15;;;;;;;13.82;3.75;;;;;;;;;;5024205;28;20217;-71
2023/05/26 11:57:42;;;;;;;24.50;5.18;;;;;;;;;;5028429;28;20656;-72
2023/05/26 12:00:19;;;;;;;17.58;3.53;;;;;;;;;;5021774;28;20195;-71
2023/05/26 12:02:47;;;;;;;16.52;4.07;;;;;;;;;;5026842;28;20197;-67
2023/05/26 12:05:39;;;;;;;15.35;4.10;;;;;;;;;;5021957;28;20229;-70
2023/05/26 12:08:07;;;;;;;12.85;3.65;;;;;;;;;;5013302;28;20282;-72
2023/05/26 12:10:33;;;;;;;18.02;3.88;;;;;;;;;;5024568;28;20240;-70
2023/05/26 12:12:59;;;;;;;16.65;4.20;;;;;;;;;;5039297;28;20588;-71
2023/05/26 12:15:25;;;;;;;14.82;3.92;;;;;;;;;;5031528;28;20496;-70
2023/05/26 12:17:51;;;;;;;20.52;4.10;;;;;;;;;;5033388;28;20549;-73
2023/05/26 12:20:17;;;;;;;14.10;3.80;;;;;;;;;;5027859;28;20621;-73
2023/05/26 12:22:43;;;;;;;15.45;4.00;;;;;;;;;;5036178;28;20644;-70
2023/05/26 12:25:08;;;;;;;12.13;3.22;;;;;;;;;;5017782;28;20182;-69
2023/05/26 12:27:36;;;;;;;13.05;3.63;;;;;;;;;;5027951;28;20685;-68
2023/05/26 12:30:19;;;;;;;13.60;3.40;;;;;;;;;;5019754;28;20599;-71
2023/05/26 12:32:45;;;;;;;16.65;3.78;;;;;;;;;;5019244;28;20593;-66
2023/05/26 12:35:11;;;;;;;13.70;3.15;;;;;;;;;;5017900;28;20199;-68
2023/05/26 12:37:37;;;;;;;15.88;3.42;;;;;;;;;;5021732;28;20622;-69
2023/05/26 12:40:03;;;;;;;13.52;2.90;;;;;;;;;;5014329;28;20500;-70
2023/05/26 12:42:29;;;;;;;12.18;3.25;;;;;;;;;;5019060;28;20240;-69
2023/05/26 12:44:55;;;;;;;15.85;3.88;;;;;;;;;;5026867;28;20221;-69
2023/05/26 12:47:20;;;;;;;12.18;2.90;;;;;;;;;;5026911;28;20222;-71
2023/05/26 12:49:45;;;;;;;14.35;3.60;;;;;;;;;;5024858;28;20218;-69
2023/05/26 12:52:11;;;;;;;12.30;2.97;;;;;;;;;;5017560;28;20647;-68
2023/05/26 12:54:36;;;;;;;12.00;2.88;;;;;;;;;;5020569;28;20304;-68
2023/05/26 12:57:04;;;;;;;12.98;3.00;;;;;;;;;;5029185;28;20197;-68
2023/05/26 12:59:33;;;;;;;12.77;3.38;;;;;;;;;;5023109;28;20202;-71
2023/05/26 13:01:59;;;;;;;15.90;3.63;;;;;;;;;;5033928;28;20244;-71
2023/05/26 13:04:25;;;;;;;11.05;2.90;;;;;;;;;;5026745;28;20218;-71
2023/05/26 13:06:51;;;;;;;13.07;3.60;;;;;;;;;;5025320;28;20192;-72
2023/05/26 13:09:17;;;;;;;16.38;3.13;;;;;;;;;;5026875;28;20793;-68
2023/05/26 13:11:43;;;;;;;13.52;2.83;;;;;;;;;;5030075;28;20248;-73
2023/05/26 13:14:09;;;;;;;11.88;2.90;;;;;;;;;;5025195;28;20244;-67
2023/05/26 13:16:34;;;;;;;17.27;3.72;;;;;;;;;;5027717;28;20194;-71
2023/05/26 13:19:00;;;;;;;12.48;3.33;;;;;;;;;;5023867;28;20638;-72
2023/05/26 13:21:25;;;;;;;14.80;4.00;;;;;;;;;;5013061;28;20226;-71
2023/05/26 13:23:51;;;;;;;15.90;3.05;;;;;;;;;;5026244;28;20194;-70
2023/05/26 13:26:16;;;;;;;14.23;3.60;;;;;;;;;;5027430;28;20208;-70
2023/05/26 13:28:42;;;;;;;13.20;2.88;;;;;;;;;;5023203;28;20276;-70
2023/05/26 13:31:07;;;;;;;14.45;2.72;;;;;;;;;;5010647;28;20182;-70
2023/05/26 13:33:33;;;;;;;14.40;3.33;;;;;;;;;;5013265;28;20206;-73
2023/05/26 13:35:58;;;;;;;13.70;3.17;;;;;;;;;;5018025;28;20205;-70
2023/05/26 13:38:23;;;;;;;11.90;3.17;;;;;;;;;;5014983;28;20740;-67
2023/05/26 13:40:49;;;;;;;15.00;3.42;;;;;;;;;;5018664;28;20202;-68
2023/05/26 13:43:15;;;;;;;12.80;3.30;;;;;;;;;;5015684;28;20183;-69
2023/05/26 13:45:40;;;;;;;12.45;3.33;;;;;;;;;;5017703;28;20227;-70
2023/05/26 13:48:07;;;;;;;13.95;2.58;;;;;;;;;;5021307;28;20226;-68
2023/05/26 13:50:32;;;;;;;10.60;3.10;;;;;;;;;;5011469;28;20226;-69
2023/05/26 13:52:58;;;;;;;17.92;3.10;;;;;;;;;;5015019;28;20560;-70
2023/05/26 13:55:24;;;;;;;12.90;2.72;;;;;;;;;;5013985;28;20186;-69
2023/05/26 13:57:49;;;;;;;14.00;3.47;;;;;;;;;;5015106;28;20218;-70
2023/05/26 14:00:15;;;;;;;11.45;3.55;;;;;;;;;;5016469;28;20945;-71
2023/05/26 14:02:40;;;;;;;13.30;3.05;;;;;;;;;;5021751;28;20200;-68
2023/05/26 14:05:06;;;;;;;16.20;4.20;;;;;;;;;;5015308;28;20265;-69
2023/05/26 14:07:32;;;;;;;14.90;3.30;;;;;;;;;;5015164;28;20516;-68
2023/05/26 14:09:57;;;;;;;14.95;3.20;;;;;;;;;;5012451;28;20282;-67
2023/05/26 14:12:23;;;;;;;11.85;3.05;;;;;;;;;;5013209;28;20260;-69
2023/05/26 14:14:48;;;;;;;19.65;3.65;;;;;;;;;;5016435;28;20225;-70
2023/05/26 14:17:14;;;;;;;13.68;3.22;;;;;;;;;;5014957;28;20675;-71
2023/05/26 14:19:39;;;;;;;14.00;3.25;;;;;;;;;;5024453;28;20194;-73
2023/05/26 14:22:04;;;;;;;16.15;3.78;;;;;;;;;;5010449;28;20557;-71
2023/05/26 14:24:30;;;;;;;15.85;3.88;;;;;;;;;;5015336;28;20198;-70
2023/05/26 14:26:55;;;;;;;11.57;2.85;;;;;;;;;;5008851;28;20521;-71
2023/05/26 14:29:21;;;;;;;14.02;3.63;;;;;;;;;;5011929;28;20368;-72